Time;durP1;ratioP1;P1;durP2;ratioP2;P2;SDS_P1;SDS_P2;PMS_P1;PMS_P2;Temp;Humidity;BMP_temperature;BMP_pressure;BME280_temperature;BME280_humidity;BME280_pressure;Samples;Min_cycle;Max_cycle;Signal;HPM_P1;HPM_P2
2023/01/09 00:01:02;;;;;;;;;;;19.40;55.30;;;;;;5079254;28;44804;-66
2023/01/09 00:03:29;;;;;;;;;;;19.40;55.30;;;;;;5073422;28;43527;-66
2023/01/09 00:05:56;;;;;;;;;;;19.40;55.40;;;;;;5081020;28;43454;-66
2023/01/09 00:08:24;;;;;;;;;;;19.40;55.40;;;;;;5083422;28;43501;-65
2023/01/09 00:10:52;;;;;;;;;;;19.40;55.40;;;;;;5079751;28;43797;-65
2023/01/09 00:13:19;;;;;;;;;;;19.40;55.40;;;;;;5080729;28;43379;-66
2023/01/09 00:15:47;;;;;;;;;;;19.40;55.40;;;;;;5082972;28;43504;-66
2023/01/09 00:18:15;;;;;;;;;;;19.40;55.40;;;;;;5080015;28;43410;-66
2023/01/09 00:20:42;;;;;;;;;;;19.40;55.40;;;;;;5082864;28;43919;-65
2023/01/09 00:23:10;;;;;;;;;;;19.30;55.40;;;;;;5083570;28;43457;-66
2023/01/09 00:25:37;;;;;;;;;;;19.40;55.50;;;;;;5082565;28;44042;-66
2023/01/09 00:28:07;;;;;;;;;;;19.30;55.40;;;;;;5080258;28;43422;-66
2023/01/09 00:30:35;;;;;;;;;;;19.30;55.40;;;;;;5082584;28;43914;-66
2023/01/09 00:33:02;;;;;;;;;;;19.30;55.40;;;;;;5078359;28;43449;-66
2023/01/09 00:35:29;;;;;;;;;;;19.30;55.40;;;;;;5082435;28;43375;-66
2023/01/09 00:37:57;;;;;;;;;;;19.30;55.40;;;;;;5077910;28;43466;-66
2023/01/09 00:40:24;;;;;;;;;;;19.30;55.40;;;;;;5083384;27;44189;-66
2023/01/09 00:42:53;;;;;;;;;;;19.30;55.40;;;;;;5077405;27;43493;-66
2023/01/09 00:45:27;;;;;;;;;;;19.30;55.40;;;;;;5082889;28;43432;-66
2023/01/09 00:47:58;;;;;;;;;;;19.30;55.40;;;;;;5079318;27;43423;-66
2023/01/09 00:50:28;;;;;;;;;;;19.30;56.10;;;;;;5082585;28;43916;-66
2023/01/09 00:52:58;;;;;;;;;;;19.20;55.50;;;;;;5078289;28;43487;-66
2023/01/09 00:55:26;;;;;;;;;;;19.20;55.50;;;;;;5075855;28;43390;-65
2023/01/09 00:57:54;;;;;;;;;;;19.20;55.50;;;;;;5070965;28;43472;-66
2023/01/09 01:00:22;;;;;;;;;;;19.20;55.50;;;;;;5082854;28;43826;-66
2023/01/09 01:02:49;;;;;;;;;;;19.20;55.50;;;;;;5083349;27;43472;-66
2023/01/09 01:08:08;;;;;;;;;;;19.20;55.50;;;;;;5073906;28;43479;-66
2023/01/09 01:10:37;;;;;;;;;;;19.20;55.60;;;;;;5080892;27;43974;-66
2023/01/09 01:13:04;;;;;;;;;;;19.10;55.50;;;;;;5079657;28;43435;-66
2023/01/09 01:15:31;;;;;;;;;;;19.10;55.60;;;;;;5081586;28;43414;-65
2023/01/09 01:17:59;;;;;;;;;;;19.10;55.60;;;;;;5082364;27;43462;-66
2023/01/09 01:20:27;;;;;;;;;;;19.10;55.60;;;;;;5078640;28;43570;-65
2023/01/09 01:22:54;;;;;;;;;;;19.10;55.60;;;;;;5075210;28;43439;-66
2023/01/09 01:25:22;;;;;;;;;;;19.10;55.60;;;;;;5079470;28;43957;-66
2023/01/09 01:27:49;;;;;;;;;;;19.10;55.60;;;;;;5079086;28;43518;-66
2023/01/09 01:30:18;;;;;;;;;;;19.10;55.60;;;;;;5078835;28;44855;-66
2023/01/09 01:32:46;;;;;;;;;;;19.10;55.60;;;;;;5074975;28;43452;-66
2023/01/09 01:35:13;;;;;;;;;;;19.10;55.60;;;;;;5079168;28;43442;-66
2023/01/09 01:37:41;;;;;;;;;;;19.10;55.60;;;;;;5079360;28;43514;-66
2023/01/09 01:40:09;;;;;;;;;;;19.10;55.60;;;;;;5079177;28;44727;-66
2023/01/09 01:42:36;;;;;;;;;;;19.10;55.70;;;;;;5078662;28;43486;-66
2023/01/09 01:45:06;;;;;;;;;;;19.00;55.60;;;;;;5083032;28;43480;-66
2023/01/09 01:47:43;;;;;;;;;;;19.00;55.60;;;;;;5078748;28;43485;-66
2023/01/09 01:50:14;;;;;;;;;;;19.00;55.60;;;;;;5076871;28;43787;-66
2023/01/09 01:52:44;;;;;;;;;;;19.00;55.60;;;;;;5076720;28;43896;-65
2023/01/09 01:55:11;;;;;;;;;;;19.00;55.60;;;;;;5078100;27;43433;-66
2023/01/09 01:57:41;;;;;;;;;;;19.00;55.60;;;;;;5078311;28;43546;-66
2023/01/09 02:00:09;;;;;;;;;;;19.00;55.60;;;;;;5073467;28;43674;-66
2023/01/09 02:02:37;;;;;;;;;;;19.00;55.60;;;;;;5079850;28;43443;-66
2023/01/09 02:05:04;;;;;;;;;;;19.00;55.60;;;;;;5079107;27;43547;-66
2023/01/09 02:07:32;;;;;;;;;;;19.00;55.70;;;;;;5081654;28;43535;-65
2023/01/09 02:09:59;;;;;;;;;;;18.90;55.60;;;;;;5079456;28;43805;-66
2023/01/09 02:12:27;;;;;;;;;;;18.90;55.60;;;;;;5076798;28;43394;-65
2023/01/09 02:15:23;;;;;;;;;;;18.90;55.60;;;;;;5078801;28;43402;-66
2023/01/09 02:18:00;;;;;;;;;;;18.90;55.60;;;;;;5068454;28;45259;-66
2023/01/09 02:20:33;;;;;;;;;;;18.90;55.70;;;;;;5077492;28;44049;-66
2023/01/09 02:23:19;;;;;;;;;;;18.90;55.70;;;;;;5074842;28;43537;-66
2023/01/09 02:26:01;;;;;;;;;;;18.90;55.70;;;;;;5080965;28;43342;-65
2023/01/09 02:28:48;;;;;;;;;;;18.90;55.70;;;;;;5070551;28;43549;-65
2023/01/09 02:31:21;;;;;;;;;;;18.90;55.70;;;;;;5081311;28;44686;-66
2023/01/09 02:34:04;;;;;;;;;;;18.90;55.70;;;;;;5075608;28;46040;-66
2023/01/09 02:36:51;;;;;;;;;;;18.80;55.70;;;;;;5071805;28;43458;-65
2023/01/09 02:39:21;;;;;;;;;;;18.80;55.80;;;;;;5068691;28;43441;-65
2023/01/09 02:41:49;;;;;;;;;;;18.80;55.80;;;;;;5077832;28;46391;-65
2023/01/09 02:44:16;;;;;;;;;;;18.80;55.80;;;;;;5078415;28;43411;-66
2023/01/09 02:46:44;;;;;;;;;;;18.80;55.80;;;;;;5077575;28;43447;-66
2023/01/09 02:49:11;;;;;;;;;;;18.80;55.80;;;;;;5077010;28;43458;-65
2023/01/09 02:51:52;;;;;;;;;;;18.80;55.90;;;;;;5074910;28;44001;-66
2023/01/09 02:54:40;;;;;;;;;;;18.80;55.80;;;;;;5077946;28;43599;-65
2023/01/09 02:57:13;;;;;;;;;;;18.80;55.80;;;;;;5076623;27;43380;-65
2023/01/09 02:59:52;;;;;;;;;;;18.70;55.80;;;;;;5075889;28;43501;-65
2023/01/09 03:02:33;;;;;;;;;;;18.80;55.80;;;;;;5078287;28;44088;-65
2023/01/09 03:05:10;;;;;;;;;;;18.70;55.80;;;;;;5075778;27;43974;-66
2023/01/09 03:07:43;;;;;;;;;;;18.70;55.90;;;;;;5078810;27;43453;-66
2023/01/09 03:10:20;;;;;;;;;;;18.70;55.80;;;;;;5082051;27;43420;-65
2023/01/09 03:12:49;;;;;;;;;;;18.70;55.90;;;;;;5083809;28;43895;-65
2023/01/09 03:15:17;;;;;;;;;;;18.60;55.90;;;;;;5081124;27;43532;-65
2023/01/09 03:17:47;;;;;;;;;;;18.70;56.00;;;;;;5080653;28;43447;-65
2023/01/09 03:20:17;;;;;;;;;;;18.60;55.90;;;;;;5084872;28;43459;-65
2023/01/09 03:22:51;;;;;;;;;;;18.60;56.00;;;;;;5077835;27;43850;-65
2023/01/09 03:25:19;;;;;;;;;;;18.60;55.90;;;;;;5080976;28;43456;-66
2023/01/09 03:27:46;;;;;;;;;;;18.60;56.00;;;;;;5080522;28;43472;-65
2023/01/09 03:30:13;;;;;;;;;;;18.60;55.90;;;;;;5085381;28;43430;-66
2023/01/09 03:32:41;;;;;;;;;;;18.60;56.00;;;;;;5077566;28;44783;-66
2023/01/09 03:35:08;;;;;;;;;;;18.60;55.90;;;;;;5082594;28;43973;-66
2023/01/09 03:37:35;;;;;;;;;;;18.60;56.00;;;;;;5063224;28;43494;-66
2023/01/09 03:40:03;;;;;;;;;;;18.60;56.00;;;;;;5080358;28;43580;-65
2023/01/09 03:42:30;;;;;;;;;;;18.50;56.00;;;;;;5077010;27;44080;-65
2023/01/09 03:44:58;;;;;;;;;;;18.50;56.00;;;;;;5078880;28;43370;-66
2023/01/09 03:47:25;;;;;;;;;;;18.60;56.00;;;;;;5079923;28;43458;-65
2023/01/09 03:49:52;;;;;;;;;;;18.50;56.00;;;;;;5080335;28;43446;-66
2023/01/09 03:52:19;;;;;;;;;;;18.60;56.00;;;;;;5077717;28;43978;-65
2023/01/09 03:54:47;;;;;;;;;;;18.50;56.00;;;;;;5079722;28;43375;-66
2023/01/09 03:57:14;;;;;;;;;;;18.50;56.00;;;;;;5083998;28;43505;-66
2023/01/09 03:59:41;;;;;;;;;;;18.50;56.00;;;;;;5084840;28;43469;-64
2023/01/09 04:02:09;;;;;;;;;;;18.50;56.00;;;;;;5077300;27;43980;-65
2023/01/09 04:04:36;;;;;;;;;;;18.50;56.70;;;;;;5077883;28;43740;-66
2023/01/09 04:07:03;;;;;;;;;;;18.50;56.00;;;;;;5083917;28;43494;-65
2023/01/09 04:09:31;;;;;;;;;;;18.40;56.00;;;;;;5084314;28;43512;-65
2023/01/09 04:11:58;;;;;;;;;;;18.50;56.10;;;;;;5076458;28;44030;-65
2023/01/09 04:14:25;;;;;;;;;;;18.50;56.00;;;;;;5079761;28;43430;-65
2023/01/09 04:16:53;;;;;;;;;;;18.50;56.10;;;;;;5080018;28;43414;-65
2023/01/09 04:19:20;;;;;;;;;;;18.40;56.00;;;;;;5079274;27;43430;-66
2023/01/09 04:21:47;;;;;;;;;;;18.40;56.00;;;;;;5079258;28;44181;-65
2023/01/09 04:24:15;;;;;;;;;;;18.40;56.00;;;;;;5077359;28;43493;-65
2023/01/09 04:26:42;;;;;;;;;;;18.40;56.00;;;;;;5083440;28;43450;-65
2023/01/09 04:29:09;;;;;;;;;;;18.40;56.00;;;;;;5084599;28;43465;-65
2023/01/09 04:31:37;;;;;;;;;;;18.40;56.10;;;;;;5076323;28;43772;-65
2023/01/09 04:34:04;;;;;;;;;;;18.40;56.10;;;;;;5077559;28;43815;-57
2023/01/09 04:36:33;;;;;;;;;;;18.40;56.10;;;;;;5080178;28;43411;-57
2023/01/09 04:39:01;;;;;;;;;;;18.40;56.10;;;;;;5080111;28;43526;-57
2023/01/09 04:44:14;;;;;;;;;;;18.30;56.00;;;;;;5069759;28;43399;-57
2023/01/09 04:46:42;;;;;;;;;;;18.30;56.10;;;;;;5079548;28;43380;-57
2023/01/09 04:49:09;;;;;;;;;;;18.30;56.10;;;;;;5083330;28;43559;-57
2023/01/09 04:51:37;;;;;;;;;;;18.30;56.10;;;;;;5079158;28;44046;-57
2023/01/09 04:54:04;;;;;;;;;;;18.30;56.10;;;;;;5079494;28;43501;-57
2023/01/09 04:56:32;;;;;;;;;;;18.30;56.10;;;;;;5080255;28;43397;-57
2023/01/09 04:58:59;;;;;;;;;;;18.30;56.10;;;;;;5078203;28;43461;-57
2023/01/09 05:01:26;;;;;;;;;;;18.30;56.10;;;;;;5079562;28;43984;-57
2023/01/09 05:03:54;;;;;;;;;;;18.30;56.10;;;;;;5079756;28;43510;-57
2023/01/09 05:06:21;;;;;;;;;;;18.30;56.10;;;;;;5079659;27;43387;-57
2023/01/09 05:08:49;;;;;;;;;;;18.30;56.10;;;;;;5078251;28;43461;-57
2023/01/09 05:11:16;;;;;;;;;;;18.30;56.10;;;;;;5076915;28;44968;-56
2023/01/09 05:13:43;;;;;;;;;;;18.30;56.10;;;;;;5078906;28;43551;-56
2023/01/09 05:16:11;;;;;;;;;;;18.20;56.10;;;;;;5079514;28;43491;-57
2023/01/09 05:18:38;;;;;;;;;;;18.20;56.10;;;;;;5077966;28;43435;-57
2023/01/09 05:21:05;;;;;;;;;;;18.20;56.10;;;;;;5076313;28;43892;-57
2023/01/09 05:23:33;;;;;;;;;;;18.20;56.00;;;;;;5079168;28;43371;-56
2023/01/09 05:26:00;;;;;;;;;;;18.20;56.10;;;;;;5079298;28;43504;-57
2023/01/09 05:28:27;;;;;;;;;;;18.20;56.10;;;;;;5077664;28;43489;-57
2023/01/09 05:30:55;;;;;;;;;;;18.20;56.10;;;;;;5076472;28;44749;-57
2023/01/09 05:33:22;;;;;;;;;;;18.20;56.10;;;;;;5078991;28;43399;-56
2023/01/09 05:35:49;;;;;;;;;;;18.20;56.10;;;;;;5078960;28;43451;-57
2023/01/09 05:38:17;;;;;;;;;;;18.10;56.10;;;;;;5078512;28;43624;-57
2023/01/09 05:40:44;;;;;;;;;;;18.10;56.10;;;;;;5075234;28;43843;-57
2023/01/09 05:43:11;;;;;;;;;;;18.10;56.10;;;;;;5079159;28;43517;-57
2023/01/09 05:45:39;;;;;;;;;;;18.10;56.20;;;;;;5079024;28;43447;-57
2023/01/09 05:48:06;;;;;;;;;;;18.10;56.10;;;;;;5077815;28;43426;-57
2023/01/09 05:50:33;;;;;;;;;;;18.10;56.10;;;;;;5075161;28;43967;-57
2023/01/09 05:53:01;;;;;;;;;;;18.10;56.10;;;;;;5078734;28;43561;-57
2023/01/09 05:55:28;;;;;;;;;;;18.10;56.10;;;;;;5071368;28;43496;-57
2023/01/09 05:57:55;;;;;;;;;;;18.10;56.10;;;;;;5078209;28;43457;-57
2023/01/09 06:00:23;;;;;;;;;;;18.10;56.10;;;;;;5079360;28;43808;-57
2023/01/09 06:02:50;;;;;;;;;;;18.00;56.10;;;;;;5077167;27;43564;-57
2023/01/09 06:05:17;;;;;;;;;;;18.00;56.10;;;;;;5079316;27;43426;-57
2023/01/09 06:07:45;;;;;;;;;;;18.10;56.10;;;;;;5079316;28;43572;-57
2023/01/09 06:10:13;;;;;;;;;;;18.00;56.00;;;;;;5074515;28;43788;-57
2023/01/09 06:12:41;;;;;;;;;;;18.10;56.00;;;;;;5070769;28;43542;-57
2023/01/09 06:15:08;;;;;;;;;;;18.10;56.00;;;;;;5078910;28;43373;-57
2023/01/09 06:17:36;;;;;;;;;;;18.00;55.90;;;;;;5076841;28;43529;-57
2023/01/09 06:20:03;;;;;;;;;;;18.00;56.00;;;;;;5072817;28;43798;-57
2023/01/09 06:22:31;;;;;;;;;;;18.00;55.90;;;;;;5080315;28;43467;-57
2023/01/09 06:24:58;;;;;;;;;;;18.00;55.90;;;;;;5083128;27;43412;-57
2023/01/09 06:27:25;;;;;;;;;;;18.10;56.00;;;;;;5077495;28;43463;-57
2023/01/09 06:29:53;;;;;;;;;;;18.00;56.10;;;;;;5074325;28;43985;-57
2023/01/09 06:32:20;;;;;;;;;;;18.10;56.10;;;;;;5081486;28;43964;-56
2023/01/09 06:34:47;;;;;;;;;;;18.10;56.20;;;;;;5077965;28;43438;-56
2023/01/09 06:37:14;;;;;;;;;;;18.10;56.10;;;;;;5074029;28;43429;-56
2023/01/09 06:39:42;;;;;;;;;;;18.10;56.00;;;;;;5077435;27;43881;-57
2023/01/09 06:42:09;;;;;;;;;;;18.10;56.00;;;;;;5082332;28;43614;-57
2023/01/09 06:44:36;;;;;;;;;;;18.10;55.80;;;;;;5078254;28;43473;-57
2023/01/09 06:47:04;;;;;;;;;;;18.10;55.80;;;;;;5080776;28;43451;-56
2023/01/09 06:49:31;;;;;;;;;;;18.10;55.80;;;;;;5082055;27;43784;-56
2023/01/09 06:52:04;;;;;;;;;;;18.10;55.80;;;;;;5076901;28;43510;-57
2023/01/09 06:54:31;;;;;;;;;;;18.10;55.80;;;;;;5084037;27;43340;-57
2023/01/09 06:56:59;;;;;;;;;;;18.10;56.50;;;;;;5076449;28;43477;-56
2023/01/09 06:59:26;;;;;;;;;;;18.10;55.80;;;;;;5076038;27;43781;-56
2023/01/09 07:01:54;;;;;;;;;;;18.10;55.80;;;;;;5077464;28;43519;-56
2023/01/09 07:04:22;;;;;;;;;;;18.00;56.50;;;;;;5076008;28;43452;-57
2023/01/09 07:06:49;;;;;;;;;;;18.00;55.90;;;;;;5083085;27;43446;-57
2023/01/09 07:09:16;;;;;;;;;;;18.00;56.00;;;;;;5079403;27;44076;-57
2023/01/09 07:11:44;;;;;;;;;;;18.00;56.00;;;;;;5079842;27;43506;-57
2023/01/09 07:14:11;;;;;;;;;;;18.00;56.10;;;;;;5082440;27;43495;-57
2023/01/09 07:16:39;;;;;;;;;;;18.00;56.10;;;;;;5079192;27;43479;-57
2023/01/09 07:19:06;;;;;;;;;;;17.90;56.10;;;;;;5075070;28;43764;-57
2023/01/09 07:21:33;;;;;;;;;;;17.90;56.10;;;;;;5079656;28;43501;-57
2023/01/09 07:24:01;;;;;;;;;;;17.90;56.10;;;;;;5077483;27;43391;-57
2023/01/09 07:26:28;;;;;;;;;;;17.90;56.20;;;;;;5079638;27;43565;-57
2023/01/09 07:28:55;;;;;;;;;;;17.90;56.20;;;;;;5077928;28;44678;-57
2023/01/09 07:31:23;;;;;;;;;;;17.90;56.90;;;;;;5074871;28;43768;-57
2023/01/09 07:33:50;;;;;;;;;;;17.90;56.30;;;;;;5077747;27;43466;-57
2023/01/09 07:36:17;;;;;;;;;;;17.90;56.30;;;;;;5081648;27;43528;-57
2023/01/09 07:38:45;;;;;;;;;;;17.90;56.30;;;;;;5065446;28;44990;-57
2023/01/09 07:41:12;;;;;;;;;;;17.90;56.30;;;;;;5077022;28;43532;-57
2023/01/09 07:43:39;;;;;;;;;;;17.90;56.30;;;;;;5077642;27;43464;-57
2023/01/09 07:46:07;;;;;;;;;;;17.90;56.20;;;;;;5077469;28;43458;-57
2023/01/09 07:48:34;;;;;;;;;;;17.90;56.20;;;;;;5079664;27;43892;-57
2023/01/09 07:51:02;;;;;;;;;;;17.90;56.30;;;;;;5081395;27;43486;-57
2023/01/09 07:53:29;;;;;;;;;;;17.90;56.20;;;;;;5088264;27;43532;-57
2023/01/09 07:55:56;;;;;;;;;;;17.90;56.20;;;;;;5083394;28;43481;-57
2023/01/09 07:58:24;;;;;;;;;;;17.90;56.20;;;;;;5087627;27;43982;-57
2023/01/09 08:00:51;;;;;;;;;;;17.90;56.10;;;;;;5086847;27;45058;-57
2023/01/09 08:03:18;;;;;;;;;;;17.90;56.20;;;;;;5080543;28;43471;-57
2023/01/09 08:05:46;;;;;;;;;;;17.90;56.30;;;;;;5076219;28;44139;-57
2023/01/09 08:08:15;;;;;;;;;;;17.90;56.30;;;;;;5080732;27;44052;-57
2023/01/09 08:10:43;;;;;;;;;;;17.90;56.50;;;;;;5081300;28;43502;-57
2023/01/09 08:13:10;;;;;;;;;;;17.90;56.40;;;;;;5081559;28;43389;-58
2023/01/09 08:15:38;;;;;;;;;;;17.80;56.40;;;;;;5078699;28;43439;-57
2023/01/09 08:18:05;;;;;;;;;;;17.90;56.70;;;;;;5077636;28;45292;-55
2023/01/09 08:20:32;;;;;;;;;;;17.90;57.00;;;;;;5080125;28;43403;-57
2023/01/09 08:23:00;;;;;;;;;;;18.00;56.50;;;;;;5081447;27;43514;-57
2023/01/09 08:25:27;;;;;;;;;;;18.10;56.40;;;;;;5083205;28;43518;-57
2023/01/09 08:27:54;;;;;;;;;;;18.20;56.20;;;;;;5082967;27;44020;-57
2023/01/09 08:30:23;;;;;;;;;;;18.20;56.10;;;;;;5083413;28;43492;-57
2023/01/09 08:32:51;;;;;;;;;;;18.30;56.00;;;;;;5081636;27;43408;-57
2023/01/09 08:35:19;;;;;;;;;;;18.40;55.90;;;;;;5083484;28;43437;-57
2023/01/09 08:37:47;;;;;;;;;;;18.50;55.80;;;;;;5082582;27;44047;-56
2023/01/09 08:40:15;;;;;;;;;;;18.70;55.70;;;;;;5086700;27;43470;-57
2023/01/09 08:48:16;;;;;;;;;;;19.00;55.20;;;;;;5079325;28;43719;-56
2023/01/09 08:50:43;;;;;;;;;;;19.10;54.80;;;;;;5082104;28;43623;-56
2023/01/09 08:53:11;;;;;;;;;;;19.20;54.70;;;;;;5078096;28;43457;-56
2023/01/09 08:55:38;;;;;;;;;;;19.30;54.70;;;;;;5082306;27;43596;-55
2023/01/09 08:58:06;;;;;;;;;;;19.40;55.20;;;;;;5082637;28;43752;-55
2023/01/09 09:00:33;;;;;;;;;;;19.50;54.50;;;;;;5081959;27;43591;-57
2023/01/09 09:03:00;;;;;;;;;;;19.50;54.30;;;;;;5081852;28;43483;-56
2023/01/09 09:05:29;;;;;;;;;;;19.60;54.20;;;;;;5081434;27;43528;-56
2023/01/09 09:07:56;;;;;;;;;;;19.70;54.20;;;;;;5083117;27;44021;-56
2023/01/09 09:10:25;;;;;;;;;;;19.70;54.10;;;;;;5073428;28;43531;-56
2023/01/09 09:12:54;;;;;;;;;;;19.80;54.10;;;;;;5083556;27;43518;-56
2023/01/09 09:15:22;;;;;;;;;;;19.80;54.00;;;;;;5082549;28;43458;-56
2023/01/09 09:17:53;;;;;;;;;;;19.80;54.10;;;;;;5074424;28;44026;-56
2023/01/09 09:20:22;;;;;;;;;;;19.90;54.00;;;;;;5085179;27;43411;-56
2023/01/09 09:22:49;;;;;;;;;;;19.90;54.00;;;;;;5082822;28;43520;-57
2023/01/09 09:25:17;;;;;;;;;;;20.00;54.30;;;;;;5084254;27;43550;-56
2023/01/09 09:27:45;;;;;;;;;;;20.00;54.00;;;;;;5079419;28;44775;-59
2023/01/09 09:30:14;;;;;;;;;;;20.00;54.10;;;;;;5082568;27;44477;-58
2023/01/09 09:32:41;;;;;;;;;;;20.10;54.00;;;;;;5081703;27;43499;-58
2023/01/09 09:35:09;;;;;;;;;;;20.00;53.90;;;;;;5080715;28;43560;-58
2023/01/09 09:37:36;;;;;;;;;;;20.00;53.90;;;;;;5081631;27;45592;-57
2023/01/09 09:40:05;;;;;;;;;;;20.00;54.00;;;;;;5080807;28;44723;-59
2023/01/09 09:45:48;;;;;;;;;;;20.00;54.10;;;;;;5083918;27;43455;-57
2023/01/09 09:48:22;;;;;;;;;;;20.00;54.80;;;;;;5082938;27;43774;-57
2023/01/09 09:50:50;;;;;;;;;;;20.00;54.20;;;;;;5081292;27;43627;-57
2023/01/09 09:53:20;;;;;;;;;;;20.00;54.20;;;;;;5081357;28;43617;-58
2023/01/09 09:55:48;;;;;;;;;;;20.10;54.30;;;;;;5083863;27;43454;-58
2023/01/09 09:58:22;;;;;;;;;;;20.10;54.10;;;;;;5082507;27;44121;-58
2023/01/09 10:00:49;;;;;;;;;;;20.10;54.30;;;;;;5082032;27;43564;-56
2023/01/09 10:03:35;;;;;;;;;;;20.20;54.10;;;;;;5081421;28;43451;-56
2023/01/09 10:06:22;;;;;;;;;;;20.20;53.80;;;;;;5079867;27;43517;-56
2023/01/09 10:09:08;;;;;;;;;;;20.20;53.80;;;;;;5075432;28;45287;-56
2023/01/09 10:11:43;;;;;;;;;;;20.20;53.90;;;;;;5077768;28;43528;-57
2023/01/09 10:14:10;;;;;;;;;;;20.20;53.80;;;;;;5078000;28;44053;-56
2023/01/09 10:17:02;;;;;;;;;;;20.20;53.90;;;;;;5082709;27;43442;-56
2023/01/09 10:19:44;;;;;;;;;;;20.30;53.80;;;;;;5081491;28;43755;-56
2023/01/09 10:22:14;;;;;;;;;;;20.30;53.80;;;;;;5080862;28;43749;-56
2023/01/09 10:24:42;;;;;;;;;;;20.30;53.70;;;;;;5082628;27;43354;-56
2023/01/09 10:27:22;;;;;;;;;;;20.30;53.70;;;;;;5078077;28;43621;-56
2023/01/09 10:29:55;;;;;;;;;;;20.30;53.70;;;;;;5077978;27;44003;-57
2023/01/09 10:32:33;;;;;;;;;;;20.30;53.70;;;;;;5083347;27;43510;-56
2023/01/09 10:35:00;;;;;;;;;;;20.30;53.70;;;;;;5081115;27;43543;-57
2023/01/09 10:37:33;;;;;;;;;;;20.30;53.70;;;;;;5085451;27;43502;-56
2023/01/09 10:40:26;;;;;;;;;;;20.30;53.70;;;;;;5079456;27;44701;-57
2023/01/09 10:43:17;;;;;;;;;;;20.30;53.80;;;;;;5069802;28;43502;-57
2023/01/09 10:45:51;;;;;;;;;;;20.40;53.70;;;;;;5069815;28;43541;-57
2023/01/09 10:48:22;;;;;;;;;;;20.30;53.70;;;;;;5076391;28;43415;-57
2023/01/09 10:50:53;;;;;;;;;;;20.40;53.80;;;;;;5081144;28;44357;-57
2023/01/09 10:53:41;;;;;;;;;;;20.40;53.90;;;;;;5083069;27;43863;-57
2023/01/09 10:56:27;;;;;;;;;;;20.30;53.80;;;;;;5080076;27;43536;-57
2023/01/09 10:58:55;;;;;;;;;;;20.30;53.90;;;;;;5083993;27;43522;-57
2023/01/09 11:01:25;;;;;;;;;;;20.40;54.00;;;;;;5080456;28;43919;-56
2023/01/09 11:03:52;;;;;;;;;;;20.30;54.00;;;;;;5080408;27;43569;-56
2023/01/09 11:06:25;;;;;;;;;;;20.30;53.90;;;;;;5077121;28;43414;-56
2023/01/09 11:08:55;;;;;;;;;;;20.30;54.00;;;;;;5077643;27;43584;-56
2023/01/09 11:11:32;;;;;;;;;;;20.30;54.10;;;;;;5077051;27;44140;-56
2023/01/09 11:14:14;;;;;;;;;;;20.30;54.10;;;;;;5074078;28;43394;-56
2023/01/09 11:16:55;;;;;;;;;;;20.30;54.10;;;;;;5081870;27;43472;-56
2023/01/09 11:19:23;;;;;;;;;;;20.30;54.10;;;;;;5075401;27;43520;-56
2023/01/09 11:22:04;;;;;;;;;;;20.20;54.10;;;;;;5081851;27;43801;-56
2023/01/09 11:24:31;;;;;;;;;;;20.30;54.20;;;;;;5079106;27;43497;-56
2023/01/09 11:27:11;;;;;;;;;;;20.20;54.20;;;;;;5075979;27;43415;-56
2023/01/09 11:29:40;;;;;;;;;;;20.30;54.30;;;;;;5081156;27;43404;-59
2023/01/09 11:32:23;;;;;;;;;;;20.30;54.30;;;;;;5084439;27;45246;-58
2023/01/09 11:34:51;;;;;;;;;;;20.30;54.30;;;;;;5083974;27;43567;-58
2023/01/09 11:37:23;;;;;;;;;;;20.30;54.30;;;;;;5084589;27;43500;-58
2023/01/09 11:39:54;;;;;;;;;;;20.30;54.30;;;;;;5095743;27;43413;-58
2023/01/09 11:43:09;;;;;;;;;;;20.30;54.30;;;;;;5087038;27;43968;-57
2023/01/09 11:45:31;;;;;;;;;;;20.30;54.20;;;;;;5068017;28;44417;-58
2023/01/09 11:47:59;;;;;;;;;;;20.30;54.20;;;;;;5078979;27;43479;-58
2023/01/09 11:50:28;;;;;;;;;;;20.30;54.20;;;;;;5087596;27;43617;-58
2023/01/09 11:53:15;;;;;;;;;;;20.40;54.30;;;;;;5080602;28;43731;-58
2023/01/09 11:55:45;;;;;;;;;;;20.40;54.40;;;;;;5081983;27;43506;-58
2023/01/09 11:58:17;;;;;;;;;;;20.30;54.30;;;;;;5076917;28;43417;-58
2023/01/09 12:00:44;;;;;;;;;;;20.30;54.30;;;;;;5062247;28;43894;-58
2023/01/09 12:03:27;;;;;;;;;;;20.30;54.30;;;;;;5083389;28;44072;-58
2023/01/09 12:05:59;;;;;;;;;;;20.40;54.30;;;;;;5077155;28;43387;-58
2023/01/09 12:08:34;;;;;;;;;;;20.40;54.40;;;;;;5083096;28;43439;-58
2023/01/09 12:11:01;;;;;;;;;;;20.40;54.30;;;;;;5082029;28;43548;-58
2023/01/09 12:13:43;;;;;;;;;;;20.40;54.30;;;;;;5082432;27;43645;-58
2023/01/09 12:16:25;;;;;;;;;;;20.40;54.30;;;;;;5077982;28;43515;-58
2023/01/09 12:19:03;;;;;;;;;;;20.40;54.40;;;;;;5075305;28;43391;-58
2023/01/09 12:21:37;;;;;;;;;;;20.40;54.30;;;;;;5082640;28;43558;-58
2023/01/09 12:24:04;;;;;;;;;;;20.40;54.30;;;;;;5083055;28;43956;-58
2023/01/09 12:26:34;;;;;;;;;;;20.40;54.30;;;;;;5079978;28;43786;-58
2023/01/09 12:29:01;;;;;;;;;;;20.50;54.40;;;;;;5080461;28;43445;-58
2023/01/09 12:31:33;;;;;;;;;;;20.40;54.30;;;;;;5078028;27;43461;-58
2023/01/09 12:34:19;;;;;;;;;;;20.40;54.30;;;;;;5088299;27;44091;-58
2023/01/09 12:36:54;;;;;;;;;;;20.50;54.40;;;;;;5072588;28;43402;-58
2023/01/09 12:39:39;;;;;;;;;;;20.40;54.40;;;;;;5078653;27;43390;-58
2023/01/09 12:42:22;;;;;;;;;;;20.50;54.50;;;;;;5073459;28;43483;-58
2023/01/09 12:44:59;;;;;;;;;;;20.50;54.40;;;;;;5078930;27;44908;-58
2023/01/09 12:47:27;;;;;;;;;;;20.50;54.30;;;;;;5077536;28;43522;-58
2023/01/09 12:50:04;;;;;;;;;;;20.50;54.40;;;;;;5079736;27;43452;-58
2023/01/09 12:52:43;;;;;;;;;;;20.50;54.50;;;;;;5079189;28;43529;-58
2023/01/09 12:55:14;;;;;;;;;;;20.40;54.50;;;;;;5076973;27;43654;-58
2023/01/09 12:57:43;;;;;;;;;;;20.40;54.50;;;;;;5071314;28;43438;-58
2023/01/09 13:00:18;;;;;;;;;;;20.50;54.50;;;;;;5079556;27;43462;-58
2023/01/09 13:02:59;;;;;;;;;;;20.50;54.60;;;;;;5083601;27;43597;-58
2023/01/09 13:05:46;;;;;;;;;;;20.50;54.60;;;;;;5096788;27;45015;-58
2023/01/09 13:08:13;;;;;;;;;;;20.60;54.60;;;;;;5083462;28;43521;-58
2023/01/09 13:10:41;;;;;;;;;;;20.60;54.60;;;;;;5081022;27;43458;-58
2023/01/09 13:13:14;;;;;;;;;;;20.60;54.60;;;;;;5084608;27;43400;-58
2023/01/09 13:15:50;;;;;;;;;;;20.60;54.60;;;;;;5081111;27;43998;-58
2023/01/09 13:18:23;;;;;;;;;;;20.70;54.60;;;;;;5079931;28;43454;-58
2023/01/09 13:20:52;;;;;;;;;;;20.70;54.50;;;;;;5080822;27;43478;-58
2023/01/09 13:23:32;;;;;;;;;;;20.70;54.50;;;;;;5080149;28;43419;-58
2023/01/09 13:26:03;;;;;;;;;;;20.70;54.50;;;;;;5080145;27;44282;-58
2023/01/09 13:28:36;;;;;;;;;;;20.70;54.50;;;;;;5083771;27;43459;-58
2023/01/09 13:31:03;;;;;;;;;;;20.80;54.50;;;;;;5082574;27;43541;-58
2023/01/09 13:34:00;;;;;;;;;;;20.80;54.60;;;;;;5079328;27;43479;-58
2023/01/09 13:36:34;;;;;;;;;;;20.80;54.50;;;;;;5066310;28;44058;-58
2023/01/09 13:39:02;;;;;;;;;;;20.80;54.50;;;;;;5078643;27;43429;-58
2023/01/09 13:44:22;;;;;;;;;;;20.80;54.40;;;;;;5083794;27;43573;-58
2023/01/09 13:46:51;;;;;;;;;;;20.90;54.50;;;;;;5079047;28;44020;-58
2023/01/09 13:49:32;;;;;;;;;;;20.90;54.50;;;;;;5082606;27;43588;-58
2023/01/09 13:52:18;;;;;;;;;;;20.90;54.50;;;;;;5080271;27;43490;-58
2023/01/09 13:54:45;;;;;;;;;;;20.90;54.50;;;;;;5080903;27;43403;-58
2023/01/09 13:57:16;;;;;;;;;;;20.90;54.40;;;;;;5082850;27;44384;-58
2023/01/09 13:59:44;;;;;;;;;;;20.90;54.40;;;;;;5081206;27;43428;-59
2023/01/09 14:02:30;;;;;;;;;;;20.90;54.40;;;;;;5080845;27;43550;-58
2023/01/09 14:04:58;;;;;;;;;;;20.90;54.40;;;;;;5081204;27;43548;-58
2023/01/09 14:07:32;;;;;;;;;;;20.90;54.40;;;;;;5082437;27;43984;-58
2023/01/09 14:10:02;;;;;;;;;;;20.90;54.40;;;;;;5085038;27;43989;-58
2023/01/09 14:12:31;;;;;;;;;;;21.00;54.20;;;;;;5081034;28;43505;-58
2023/01/09 14:15:01;;;;;;;;;;;21.00;54.20;;;;;;5079412;28;43481;-58
2023/01/09 14:17:35;;;;;;;;;;;21.00;54.20;;;;;;5084472;27;44050;-58
2023/01/09 14:20:06;;;;;;;;;;;21.00;54.20;;;;;;5086031;27;43459;-58
2023/01/09 14:22:36;;;;;;;;;;;21.10;54.20;;;;;;5081259;27;58707;-58
2023/01/09 14:25:24;;;;;;;;;;;21.10;53.90;;;;;;5082728;27;43468;-58
2023/01/09 14:27:52;;;;;;;;;;;21.10;54.00;;;;;;5080097;28;45747;-58
2023/01/09 14:30:27;;;;;;;;;;;21.20;54.00;;;;;;5080894;27;43372;-58
2023/01/09 14:33:26;;;;;;;;;;;21.20;54.00;;;;;;5079912;28;43470;-58
2023/01/09 14:36:12;;;;;;;;;;;21.20;54.00;;;;;;5081878;27;43524;-58
2023/01/09 14:38:43;;;;;;;;;;;21.20;53.90;;;;;;5080097;27;43934;-58
2023/01/09 14:44:33;;;;;;;;;;;21.20;53.80;;;;;;5080473;27;43434;-58
2023/01/09 14:47:21;;;;;;;;;;;21.20;53.90;;;;;;5072261;28;43729;-58
2023/01/09 14:49:53;;;;;;;;;;;21.20;54.00;;;;;;5076225;27;43778;-58
2023/01/09 14:52:23;;;;;;;;;;;21.20;53.80;;;;;;5081671;27;43410;-58
2023/01/09 14:54:53;;;;;;;;;;;21.30;53.80;;;;;;5083474;27;43462;-58
2023/01/09 14:57:24;;;;;;;;;;;21.30;53.90;;;;;;5081027;27;43624;-58